Williamsburg, Michigan
Current Conditions -  °F | °C
As of 7:53 PM on Monday 22 Dec 2014 (Local Time) from KTVC Reporting Station
Light Snow Light Snow  
Wind Chill: -3°   Ceiling: 4500
Heat Index:   Visibility: 5mi
Dew Point: -3°   Wind: 9mph
Humidity: 73%   Direction: 110°ESE
Pressure: 29.88"   Gusts: 18mph
Location:  44.77°N, 85.4°W
Report Text: KTVC 230053Z 11008G16KT 5SM -SN OVC045 01/M03 A2988 RMK AO2 SNB47 SLP127 P0000 T00111033
Loading
Personal Weather Stations






























Interactive Weather Map New forecast layout! Learn more

10-Day Weather Forecast

Advertisements
Track Severe Weather on mobile